This is the latest recevied weather packets stored in our database for station/object LB9CG. If no packets are shown the sender has not sent any weather packets the latest 10 day(s).
| Time | Temp. | Humidity | Pressure | Rain* | Wind** | Luminosity | Snow |
|---|---|---|---|---|---|---|---|
| 1778311815 | 11.11° C | 63% | 1014.4 hPa | 0 mm | - | - | - |
| 1778311215 | 11.11° C | 63% | 1014.4 hPa | 0 mm | - | - | - |
| 1778309415 | 11.11° C | 61% | 1014.3 hPa | 0 mm | - | - | - |
| 1778308815 | 11.11° C | 61% | 1014.4 hPa | 0 mm | - | - | - |
| 1778308215 | 11.11° C | 60% | 1014.4 hPa | 0 mm | - | - | - |
| 1778307615 | 11.11° C | 61% | 1014.5 hPa | 0 mm | - | - | - |
| 1778304015 | 10.56° C | 59% | 1014.5 hPa | 0 mm | - | - | - |
| 1778303415 | 10° C | 62% | 1014.5 hPa | 0 mm | - | - | - |
| 1778296217 | 6.67° C | 81% | 1015.4 hPa | 0 mm | - | - | - |
| 1778289017 | 7.78° C | 78% | 1016.3 hPa | 0 mm | - | - | - |
| 1778283037 | 5.56° C | 87% | 1015.6 hPa | 0 mm | - | - | - |
| 1778281217 | 5.56° C | 86% | 1015.6 hPa | 0 mm | - | - | - |
| 1778280037 | 5.56° C | 84% | 1015.7 hPa | 0 mm | - | - | - |
| 1778278816 | 6.11° C | 84% | 1015.8 hPa | 0 mm | - | - | - |
| 1778277616 | 5.56° C | 84% | 1015.9 hPa | 0 mm | - | - | - |
| 1778275217 | 6.11° C | 81% | 1015.8 hPa | 0 mm | - | - | - |
| 1778274017 | 6.11° C | 81% | 1015.7 hPa | 0 mm | - | - | - |
| 1778272817 | 6.67° C | 80% | 1015.6 hPa | 0 mm | - | - | - |
| 1778269217 | 8.33° C | 76% | 1015.4 hPa | 0 mm | - | - | - |
| 1778268617 | 8.33° C | 76% | 1015.3 hPa | 0 mm | - | - | - |
| 1778266817 | 9.44° C | 70% | 1015.3 hPa | 0 mm | - | - | - |
| 1778266217 | 10.56° C | 63% | 1015.4 hPa | 0 mm | - | - | - |
| 1778260816 | 13.33° C | 51% | 1015.4 hPa | 0 mm | - | - | - |
| 1778258416 | 14.44° C | 40% | 1015.5 hPa | 0 mm | - | - | - |
| 1778257816 | 14.44° C | 46% | 1015.5 hPa | 0 mm | - | - | - |
* Rain latest hour (hover to see other rain measurements)
** Current wind speed in m/s (hover to see current wind gust speed)